OS70 weather

Al Qusayr Air Base
Al-Qusayr, Homs Governorate, Syria

Public forecast

Using degrees Celsius for public forecast. Weather courtesy of forecast.io.

METAR (pilot weather report)

Closest report is Bassel Al-Assad International Airport, 58.6 nm (108.6 km) NNW. Retrieved 2019/06/20 22:00 UTC (52 minutes ago):

OSLK 202200Z 21008KT 9999 FEW026 SCT030 25/20 Q1009

TAF (pilot weather forecast)

Forecast is more than 12 hours old.

Closest forecast is Bassel Al-Assad International Airport, 58.6 nm (108.6 km) NNW. Retrieved 2019/06/19 06:36 UTC (2 days ago):

TAF TAF OSLK 190400Z 1906/2006 24015KT 6000 -SHRA FEW025CB SCT030 BECMG 1918/1920 17010G20KT 5000 +SHRA FEW025CB BKN030 OVC100